Time;durP1;ratioP1;P1;durP2;ratioP2;P2;SDS_P1;SDS_P2;PMS_P1;PMS_P2;Temp;Humidity;BMP_temperature;BMP_pressure;BME280_temperature;BME280_humidity;BME280_pressure;Samples;Min_cycle;Max_cycle;Signal;HPM_P1;HPM_P2
2023/09/06 05:27:43;;;;;;;;;;;;;;;23.29;63.84;97193.31;4231371;27;10486;-63
2023/09/06 05:29:46;;;;;;;;;;;;;;;23.57;63.58;97197.47;4214868;28;5697;-63
2023/09/06 05:31:50;;;;;;;;;;;;;;;23.79;62.82;97206.19;4212650;28;5962;-63
2023/09/06 05:33:53;;;;;;;;;;;;;;;23.94;62.36;97189.19;4204264;28;7738;-63
2023/09/06 05:35:56;;;;;;;;;;;;;;;24.09;62.01;97191.06;4201284;28;5816;-63
2023/09/06 05:37:58;;;;;;;;;;;;;;;24.21;61.88;97196.19;4206289;28;5897;-63
2023/09/06 05:40:03;;;;;;;;;;;;;;;24.29;61.28;97201.06;4200642;28;5884;-64
2023/09/06 05:42:07;;;;;;;;;;;;;;;24.36;61.01;97199.75;4209093;28;5806;-64
2023/09/06 05:44:12;;;;;;;;;;;;;;;24.44;61.10;97194.88;4211324;28;5678;-64
2023/09/06 05:46:14;;;;;;;;;;;;;;;24.49;60.82;97186.75;4205375;28;5682;-63
2023/09/06 05:48:34;;;;;;;;;;;;;;;24.54;60.09;97201.06;4206369;28;5862;-70
2023/09/06 05:50:37;;;;;;;;;;;;;;;24.56;59.59;97200.78;4211072;28;6435;-69
2023/09/06 05:52:40;;;;;;;;;;;;;;;24.55;59.26;97193.75;4197001;28;5731;-65
2023/09/06 05:54:43;;;;;;;;;;;;;;;24.57;59.45;97205.09;4203719;28;5715;-61
2023/09/06 05:56:46;;;;;;;;;;;;;;;24.57;59.16;97205.91;4210596;28;5853;-61
2023/09/06 05:58:49;;;;;;;;;;;;;;;24.58;59.11;97206.75;4208408;28;5703;-61
2023/09/06 06:00:55;;;;;;;;;;;;;;;24.58;58.78;97210.28;4207815;28;8020;-62
2023/09/06 06:02:59;;;;;;;;;;;;;;;24.59;58.82;97198.38;4202129;28;5777;-62
2023/09/06 06:05:02;;;;;;;;;;;;;;;24.61;58.65;97208.91;4203701;28;5739;-62
2023/09/06 06:07:05;;;;;;;;;;;;;;;24.63;58.34;97195.91;4200977;28;5690;-62
2023/09/06 06:09:11;;;;;;;;;;;;;;;24.65;57.81;97207.25;4209049;28;5805;-62
2023/09/06 06:11:14;;;;;;;;;;;;;;;24.64;58.08;97200.25;4202252;28;5972;-61
2023/09/06 06:13:17;;;;;;;;;;;;;;;24.65;57.94;97207.25;4205858;28;5790;-62
2023/09/06 06:15:19;;;;;;;;;;;;;;;24.65;57.38;97209.97;4206458;28;5769;-61
2023/09/06 06:17:24;;;;;;;;;;;;;;;24.66;57.20;97208.88;4204342;28;5808;-61
2023/09/06 06:19:27;;;;;;;;;;;;;;;24.65;57.11;97212.69;4211894;28;5844;-61
2023/09/06 06:21:31;;;;;;;;;;;;;;;24.67;57.02;97208.59;4212868;28;5702;-61
2023/09/06 06:23:34;;;;;;;;;;;;;;;24.70;57.18;97206.47;4200342;28;5896;-61
2023/09/06 06:25:36;;;;;;;;;;;;;;;24.70;56.90;97212.69;4207081;28;5717;-61
2023/09/06 06:27:39;;;;;;;;;;;;;;;24.71;56.85;97216.19;4201108;28;5842;-61
2023/09/06 06:29:42;;;;;;;;;;;;;;;24.73;56.96;97214.03;4188632;28;5235;-62
2023/09/06 06:31:46;;;;;;;;;;;;;;;24.73;56.30;97220.25;4193035;28;5761;-62
2023/09/06 06:33:50;;;;;;;;;;;;;;;24.68;55.86;97223.75;4188869;28;5723;-63
2023/09/06 06:35:53;;;;;;;;;;;;;;;24.65;56.18;97221.59;4193053;28;6424;-61
2023/09/06 06:37:56;;;;;;;;;;;;;;;24.62;56.08;97224.84;4200698;28;5829;-62
2023/09/06 06:39:59;;;;;;;;;;;;;;;24.64;56.35;97216.47;4202379;28;5793;-62
2023/09/06 06:42:01;;;;;;;;;;;;;;;24.64;55.88;97213.75;4202204;28;6241;-62
2023/09/06 06:44:05;;;;;;;;;;;;;;;24.67;56.16;97208.59;4202180;28;5678;-61
2023/09/06 06:46:24;;;;;;;;;;;;;;;24.73;56.03;97214.84;4201933;28;5745;-61
2023/09/06 06:48:27;;;;;;;;;;;;;;;24.77;56.05;97215.91;4202162;28;5702;-62
2023/09/06 06:50:31;;;;;;;;;;;;;;;24.79;56.28;97212.91;4196296;28;5814;-60
2023/09/06 06:52:35;;;;;;;;;;;;;;;24.78;55.66;97212.09;4202046;28;5765;-61
2023/09/06 06:54:40;;;;;;;;;;;;;;;24.76;55.21;97211.56;4194110;28;7262;-61
2023/09/06 06:56:45;;;;;;;;;;;;;;;24.73;55.46;97209.44;4195106;28;5853;-61
2023/09/06 06:58:47;;;;;;;;;;;;;;;24.72;55.39;97204.28;4202309;28;6495;-61
2023/09/06 07:00:50;;;;;;;;;;;;;;;24.75;55.31;97209.97;4202321;28;5689;-62
2023/09/06 07:02:53;;;;;;;;;;;;;;;24.76;55.37;97211.56;4202222;28;5706;-62
2023/09/06 07:04:57;;;;;;;;;;;;;;;24.80;55.63;97217.22;4202264;28;6380;-62
2023/09/06 07:07:02;;;;;;;;;;;;;;;24.83;55.83;97220.22;4200415;28;5703;-62
2023/09/06 07:09:05;;;;;;;;;;;;;;;24.85;56.04;97217.25;4197548;28;5675;-62
2023/09/06 07:11:07;;;;;;;;;;;;;;;24.86;55.97;97218.84;4202143;28;6738;-62
2023/09/06 07:13:13;;;;;;;;;;;;;;;24.89;56.09;97224.50;4202307;28;5674;-62
2023/09/06 07:15:16;;;;;;;;;;;;;;;24.91;56.23;97222.34;4202092;28;5715;-61
2023/09/06 07:17:19;;;;;;;;;;;;;;;24.92;56.08;97218.59;4201825;28;5702;-62
2023/09/06 07:19:22;;;;;;;;;;;;;;;24.93;56.23;97217.50;4202032;28;6486;-62
2023/09/06 07:21:25;;;;;;;;;;;;;;;24.92;56.17;97215.88;4202101;28;6387;-62
2023/09/06 07:23:30;;;;;;;;;;;;;;;24.94;56.56;97216.41;4201998;28;5702;-61
2023/09/06 07:25:32;;;;;;;;;;;;;;;24.95;56.42;97218.03;4201603;28;5690;-62
2023/09/06 07:27:35;;;;;;;;;;;;;;;24.95;56.27;97211.81;4201585;28;5683;-62
2023/09/06 07:29:39;;;;;;;;;;;;;;;24.93;56.15;97214.78;4193547;28;5765;-62
2023/09/06 07:31:42;;;;;;;;;;;;;;;24.92;56.13;97213.16;4201827;28;5688;-62
2023/09/06 07:33:45;;;;;;;;;;;;;;;24.92;56.04;97215.88;4201597;28;5789;-61
2023/09/06 07:35:48;;;;;;;;;;;;;;;24.94;56.04;97210.19;4201827;28;5766;-62
2023/09/06 07:37:51;;;;;;;;;;;;;;;24.96;56.42;97211.53;4197127;28;5893;-62
2023/09/06 07:39:59;;;;;;;;;;;;;;;24.98;56.38;97216.66;4200600;28;5698;-61
2023/09/06 07:42:03;;;;;;;;;;;;;;;25.00;55.84;97214.47;4196031;28;5789;-62
2023/09/06 07:44:07;;;;;;;;;;;;;;;25.02;55.85;97216.94;4203648;28;5805;-61
2023/09/06 07:46:12;;;;;;;;;;;;;;;25.00;55.50;97211.78;4202173;28;5703;-61
2023/09/06 07:48:15;;;;;;;;;;;;;;;25.02;55.39;97216.94;4202081;28;5769;-61
2023/09/06 07:50:18;;;;;;;;;;;;;;;25.00;55.04;97214.47;4202167;28;5691;-61
2023/09/06 07:52:21;;;;;;;;;;;;;;;24.97;55.18;97217.75;4201778;28;5785;-62
2023/09/06 07:54:24;;;;;;;;;;;;;;;24.98;55.00;97217.47;4201567;28;5687;-61
2023/09/06 07:56:29;;;;;;;;;;;;;;;25.01;55.21;97216.13;4201314;28;5690;-62
2023/09/06 07:58:32;;;;;;;;;;;;;;;25.01;55.02;97226.09;4201552;28;5702;-61
2023/09/06 08:00:36;;;;;;;;;;;;;;;25.01;54.85;97226.94;4201346;28;5690;-63
2023/09/06 08:02:39;;;;;;;;;;;;;;;25.01;54.64;97226.09;4201033;28;5674;-61
2023/09/06 08:04:42;;;;;;;;;;;;;;;25.01;54.51;97221.53;4200752;28;5689;-61
2023/09/06 08:06:48;;;;;;;;;;;;;;;25.04;54.89;97231.03;4201492;28;5702;-61
2023/09/06 08:08:50;;;;;;;;;;;;;;;25.06;54.76;97226.94;4200607;28;5706;-61
2023/09/06 08:10:53;;;;;;;;;;;;;;;25.08;54.48;97215.84;4200377;28;5697;-61
2023/09/06 08:12:58;;;;;;;;;;;;;;;25.09;54.42;97214.75;4198323;28;5842;-60
2023/09/06 08:15:01;;;;;;;;;;;;;;;25.08;54.42;97215.84;4184239;28;5740;-61
2023/09/06 08:17:04;;;;;;;;;;;;;;;25.06;54.46;97218.03;4190467;28;5711;-63
2023/09/06 08:19:07;;;;;;;;;;;;;;;25.10;54.71;97216.38;4188744;28;5781;-63
2023/09/06 08:21:10;;;;;;;;;;;;;;;25.11;54.60;97218.00;4197720;28;5753;-63
2023/09/06 08:23:13;;;;;;;;;;;;;;;25.12;54.77;97206.09;4194298;28;5758;-63
2023/09/06 08:25:17;;;;;;;;;;;;;;;25.14;54.51;97214.72;4198312;28;5693;-62
2023/09/06 08:27:20;;;;;;;;;;;;;;;25.14;54.32;97212.88;4200269;28;5769;-63
2023/09/06 08:29:24;;;;;;;;;;;;;;;25.16;54.67;97220.69;4197428;28;5858;-63
2023/09/06 08:31:27;;;;;;;;;;;;;;;25.17;54.47;97209.59;4194361;28;5777;-63
2023/09/06 08:33:30;;;;;;;;;;;;;;;25.19;54.37;97217.44;4200827;28;5691;-65
2023/09/06 08:35:33;;;;;;;;;;;;;;;25.20;54.36;97214.44;4199716;28;6384;-60
2023/09/06 08:37:36;;;;;;;;;;;;;;;25.23;54.65;97216.59;4200399;28;5930;-60
2023/09/06 08:39:39;;;;;;;;;;;;;;;25.25;54.69;97214.41;4200366;28;5738;-61
2023/09/06 08:41:48;;;;;;;;;;;;;;;25.27;54.60;97213.34;4200455;28;5820;-63
2023/09/06 08:43:52;;;;;;;;;;;;;;;25.28;54.82;97213.06;4201199;28;5748;-72
2023/09/06 08:45:57;;;;;;;;;;;;;;;25.27;54.74;97205.25;4200821;28;5715;-66
2023/09/06 08:48:02;;;;;;;;;;;;;;;25.28;54.81;97210.38;4201138;28;5702;-71
2023/09/06 08:50:10;;;;;;;;;;;;;;;25.30;55.11;97210.09;4189239;28;5678;-75
2023/09/06 08:52:15;;;;;;;;;;;;;;;25.31;54.81;97215.22;4200845;28;5708;-80
2023/09/06 08:54:19;;;;;;;;;;;;;;;25.33;55.08;97213.03;4199999;28;5682;-74
2023/09/06 08:56:22;;;;;;;;;;;;;;;25.35;55.13;97212.75;4200638;28;5694;-63
2023/09/06 08:58:25;;;;;;;;;;;;;;;25.34;55.38;97211.94;4191857;28;5686;-73
2023/09/06 09:00:28;;;;;;;;;;;;;;;25.34;55.16;97214.66;4200770;28;5701;-75
2023/09/06 09:02:32;;;;;;;;;;;;;;;25.33;55.25;97215.75;4203332;28;5797;-84
2023/09/06 09:04:40;;;;;;;;;;;;;;;25.34;55.53;97214.66;4202246;28;5816;-70
2023/09/06 09:06:44;;;;;;;;;;;;;;;25.33;55.35;97210.34;4199131;28;6664;-80
2023/09/06 09:08:47;;;;;;;;;;;;;;;25.37;55.26;97216.84;4201425;28;5698;-74
2023/09/06 09:11:07;;;;;;;;;;;;;;;25.39;55.12;97213.84;4199338;28;5765;-76
2023/09/06 09:13:12;;;;;;;;;;;;;;;25.39;55.39;97211.94;4200985;28;5706;-75
2023/09/06 09:15:16;;;;;;;;;;;;;;;25.41;55.47;97214.38;4201209;28;5774;-67
2023/09/06 09:17:28;;;;;;;;;;;;;;;25.42;55.50;97216.78;4192289;28;5711;-79
2023/09/06 09:19:33;;;;;;;;;;;;;;;25.45;55.60;97218.94;4200190;28;5810;-65
2023/09/06 09:21:38;;;;;;;;;;;;;;;25.45;55.42;97216.22;4200771;28;5761;-70
2023/09/06 09:23:46;;;;;;;;;;;;;;;25.45;54.98;97210.81;4193630;28;5804;-66
2023/09/06 09:25:50;;;;;;;;;;;;;;;25.44;55.20;97209.19;4199849;28;5736;-65
2023/09/06 09:27:56;;;;;;;;;;;;;;;25.44;55.21;97203.78;4199512;28;5697;-66
2023/09/06 09:30:01;;;;;;;;;;;;;;;25.44;54.60;97201.06;4200212;28;5761;-64
2023/09/06 09:32:05;;;;;;;;;;;;;;;25.47;54.72;97205.94;4199813;28;5706;-64
2023/09/06 09:34:08;;;;;;;;;;;;;;;25.49;54.57;97202.97;4200042;28;5807;-68
2023/09/06 09:36:14;;;;;;;;;;;;;;;25.49;54.53;97200.25;4199904;28;5875;-66
2023/09/06 09:38:17;;;;;;;;;;;;;;;25.50;54.36;97208.09;4199869;28;5695;-66
2023/09/06 09:40:22;;;;;;;;;;;;;;;25.51;54.48;97196.19;4195642;28;5687;-65
2023/09/06 09:42:36;;;;;;;;;;;;;;;25.54;54.27;97198.31;4199577;28;6190;-67
2023/09/06 09:44:38;;;;;;;;;;;;;;;25.52;54.19;97195.09;4192218;28;7722;-67
2023/09/06 09:46:43;;;;;;;;;;;;;;;25.54;53.99;97198.31;4200170;28;5836;-70
2023/09/06 09:48:47;;;;;;;;;;;;;;;25.54;53.89;97192.91;4186780;28;5707;-71
2023/09/06 09:50:53;;;;;;;;;;;;;;;25.57;54.17;97196.13;4189809;28;5719;-71
2023/09/06 09:52:59;;;;;;;;;;;;;;;25.57;54.02;97178.00;4190391;28;5713;-70
2023/09/06 09:55:23;;;;;;;;;;;;;;;25.59;53.94;97183.13;4195734;28;5708;-70
2023/09/06 09:57:26;;;;;;;;;;;;;;;25.61;53.75;97186.38;4198797;28;5710;-70
2023/09/06 09:59:31;;;;;;;;;;;;;;;25.64;53.73;97180.41;4199267;28;5695;-70
2023/09/06 10:01:34;;;;;;;;;;;;;;;25.64;53.79;97173.09;4199378;28;5707;-71
2023/09/06 10:03:39;;;;;;;;;;;;;;;25.66;54.13;97172.81;4201594;28;5707;-71
2023/09/06 10:05:43;;;;;;;;;;;;;;;25.68;54.06;97176.03;4193112;28;5852;-70
2023/09/06 10:07:48;;;;;;;;;;;;;;;25.69;53.86;97172.25;4196709;28;5794;-70
2023/09/06 10:09:54;;;;;;;;;;;;;;;25.70;53.79;97173.88;4194513;28;5707;-70
2023/09/06 10:12:00;;;;;;;;;;;;;;;25.72;54.03;97171.72;4195198;28;5877;-70
2023/09/06 10:14:04;;;;;;;;;;;;;;;25.75;53.96;97171.97;4195208;28;6360;-70
2023/09/06 10:16:08;;;;;;;;;;;;;;;25.76;53.91;97173.59;4202610;28;5702;-70
2023/09/06 10:18:11;;;;;;;;;;;;;;;25.78;53.54;97178.72;4202156;28;5687;-70
2023/09/06 10:20:14;;;;;;;;;;;;;;;25.79;53.77;97174.91;4202423;28;5176;-70
2023/09/06 10:22:17;;;;;;;;;;;;;;;25.78;53.85;97170.59;4202625;28;5670;-70
2023/09/06 10:24:23;;;;;;;;;;;;;;;25.79;53.67;97170.31;4198712;28;5777;-70
2023/09/06 10:26:28;;;;;;;;;;;;;;;25.81;53.62;97170.81;4202172;28;5824;-71
2023/09/06 10:28:33;;;;;;;;;;;;;;;25.82;53.50;97169.75;4202382;28;5722;-71
2023/09/06 10:30:43;;;;;;;;;;;;;;;25.83;53.70;97168.66;4202351;28;5690;-71
2023/09/06 10:32:48;;;;;;;;;;;;;;;25.83;53.49;97167.88;4201656;28;5682;-70
2023/09/06 10:35:21;;;;;;;;;;;;;;;25.83;53.01;97157.03;4201111;28;5845;-71
2023/09/06 10:38:01;;;;;;;;;;;;;;;25.84;52.84;97161.34;4202270;28;5711;-71
2023/09/06 10:40:12;;;;;;;;;;;;;;;25.86;52.58;97150.22;4198034;28;5852;-71
2023/09/06 10:42:20;;;;;;;;;;;;;;;25.86;52.65;97167.28;4199291;28;5687;-71
2023/09/06 10:44:23;;;;;;;;;;;;;;;25.89;52.61;97152.38;4202412;28;5822;-71
2023/09/06 10:46:30;;;;;;;;;;;;;;;25.92;52.85;97157.22;4193766;28;5818;-71
2023/09/06 10:48:33;;;;;;;;;;;;;;;25.94;52.21;97160.47;4195148;28;5779;-71
2023/09/06 10:50:37;;;;;;;;;;;;;;;25.93;52.25;97146.09;4193697;28;5715;-71
2023/09/06 10:52:41;;;;;;;;;;;;;;;25.96;52.02;97150.16;4194227;28;5925;-71
2023/09/06 10:54:45;;;;;;;;;;;;;;;25.96;52.24;97145.56;4201076;28;5774;-72
2023/09/06 10:56:52;;;;;;;;;;;;;;;25.99;52.32;97144.97;4201636;28;5714;-70
2023/09/06 10:58:57;;;;;;;;;;;;;;;25.99;52.37;97147.69;4202011;28;5807;-71
2023/09/06 11:01:14;;;;;;;;;;;;;;;26.02;52.12;97149.00;4201852;28;5988;-71
2023/09/06 11:03:21;;;;;;;;;;;;;;;26.05;52.11;97143.84;4202000;28;5818;-71
2023/09/06 11:05:35;;;;;;;;;;;;;;;26.05;51.94;97137.63;4202235;28;5103;-71
2023/09/06 11:07:39;;;;;;;;;;;;;;;26.05;52.29;97141.16;4201789;28;5810;-71
2023/09/06 11:09:53;;;;;;;;;;;;;;;26.05;52.18;97137.63;4194089;28;5690;-70
2023/09/06 11:11:56;;;;;;;;;;;;;;;26.07;52.30;97138.16;4198346;28;5705;-71
2023/09/06 11:14:03;;;;;;;;;;;;;;;26.08;52.15;97135.16;4197868;28;5679;-75
2023/09/06 11:16:12;;;;;;;;;;;;;;;26.11;52.08;97137.28;4198342;28;5991;-78
2023/09/06 11:18:14;;;;;;;;;;;;;;;26.13;52.03;97137.00;4199341;28;5733;-78
2023/09/06 11:20:17;;;;;;;;;;;;;;;26.13;52.07;97124.25;4203273;28;5791;-78
2023/09/06 11:22:21;;;;;;;;;;;;;;;26.14;51.98;97130.47;4202186;28;5682;-79
2023/09/06 11:24:32;;;;;;;;;;;;;;;26.16;52.10;97132.91;4202715;28;5694;-78
2023/09/06 11:26:36;;;;;;;;;;;;;;;26.16;52.03;97122.88;4202221;28;6363;-78
2023/09/06 11:28:42;;;;;;;;;;;;;;;26.17;52.04;97115.56;4195204;28;5710;-78
2023/09/06 11:30:47;;;;;;;;;;;;;;;26.18;52.07;97114.47;4202914;28;5701;-78
2023/09/06 11:32:52;;;;;;;;;;;;;;;26.20;51.84;97125.84;4200360;28;5222;-78
2023/09/06 11:34:55;;;;;;;;;;;;;;;26.20;52.01;97118.53;4202592;28;5691;-77
2023/09/06 11:37:03;;;;;;;;;;;;;;;26.21;51.96;97119.31;4202628;28;5795;-78
2023/09/06 11:39:15;;;;;;;;;;;;;;;26.20;51.66;97106.88;4199756;28;6003;-78
2023/09/06 11:41:19;;;;;;;;;;;;;;;26.23;51.76;97111.72;4200390;28;5695;-77
2023/09/06 11:43:23;;;;;;;;;;;;;;;26.23;51.68;97111.72;4201785;28;5765;-78
2023/09/06 11:45:30;;;;;;;;;;;;;;;26.23;51.63;97107.09;4202612;28;5915;-78
2023/09/06 11:47:35;;;;;;;;;;;;;;;26.23;51.48;97107.09;4202073;28;5690;-77
2023/09/06 11:49:40;;;;;;;;;;;;;;;26.24;51.51;97111.41;4201486;28;5710;-77
2023/09/06 11:51:46;;;;;;;;;;;;;;;26.25;51.53;97106.81;4200884;28;5678;-77
2023/09/06 11:53:54;;;;;;;;;;;;;;;26.27;51.23;97110.03;4200521;28;5678;-75
2023/09/06 11:55:59;;;;;;;;;;;;;;;26.28;51.17;97103.56;4200263;28;6092;-76
2023/09/06 11:58:02;;;;;;;;;;;;;;;26.29;51.12;97100.56;4199488;28;5698;-76
2023/09/06 12:00:18;;;;;;;;;;;;;;;26.29;51.25;97105.16;4200420;28;5705;-76
2023/09/06 12:02:21;;;;;;;;;;;;;;;26.28;50.86;97098.94;4199980;28;5686;-75
2023/09/06 12:04:26;;;;;;;;;;;;;;;26.30;51.18;97098.66;4201824;28;5694;-76
2023/09/06 12:06:32;;;;;;;;;;;;;;;26.31;50.84;97094.84;4201946;28;5694;-76
2023/09/06 12:08:35;;;;;;;;;;;;;;;26.34;50.83;97099.69;4201783;28;5798;-77
2023/09/06 12:10:39;;;;;;;;;;;;;;;26.35;50.42;97095.88;4201202;28;5749;-75
2023/09/06 12:12:44;;;;;;;;;;;;;;;26.36;50.50;97098.31;4201323;28;5682;-75
2023/09/06 12:14:47;;;;;;;;;;;;;;;26.36;50.55;97089.34;4197330;28;5814;-70
2023/09/06 12:16:50;;;;;;;;;;;;;;;26.35;50.13;97093.16;4193669;28;5696;-71
2023/09/06 12:18:53;;;;;;;;;;;;;;;26.34;49.98;97089.66;4200717;28;5686;-69
2023/09/06 12:20:57;;;;;;;;;;;;;;;26.35;50.28;97087.75;4195506;28;5948;-70
2023/09/06 12:23:00;;;;;;;;;;;;;;;26.36;49.99;97081.22;4199414;28;5814;-72
2023/09/06 12:25:03;;;;;;;;;;;;;;;26.37;49.86;97085.56;4200657;28;5674;-72
2023/09/06 12:27:09;;;;;;;;;;;;;;;26.38;50.08;97092.59;4201240;28;5725;-78
2023/09/06 12:29:13;;;;;;;;;;;;;;;26.41;50.07;97083.94;4200107;28;7226;-80
2023/09/06 12:31:16;;;;;;;;;;;;;;;26.40;49.99;97085.84;4198676;28;5710;-70
2023/09/06 12:33:21;;;;;;;;;;;;;;;26.40;49.84;97083.13;4200376;28;5918;-76
2023/09/06 12:35:24;;;;;;;;;;;;;;;26.41;49.87;97081.22;4195148;28;5162;-77
2023/09/06 12:37:28;;;;;;;;;;;;;;;26.40;49.95;97079.59;4202166;28;5797;-72
2023/09/06 12:39:31;;;;;;;;;;;;;;;26.40;49.83;97083.13;4195960;28;5822;-71
2023/09/06 12:41:34;;;;;;;;;;;;;;;26.42;50.05;97074.69;4200359;28;5686;-73
2023/09/06 12:43:40;;;;;;;;;;;;;;;26.43;50.09;97073.59;4189784;28;6418;-69
2023/09/06 12:45:47;;;;;;;;;;;;;;;26.41;49.98;97062.25;4200485;28;6387;-75
2023/09/06 12:47:50;;;;;;;;;;;;;;;26.44;49.96;97072.50;4200595;28;5800;-73
2023/09/06 12:49:53;;;;;;;;;;;;;;;26.44;49.73;97066.28;4195783;28;5711;-66
2023/09/06 12:51:56;;;;;;;;;;;;;;;26.44;50.06;97064.38;4200054;28;5992;-76
2023/09/06 12:54:03;;;;;;;;;;;;;;;26.44;49.95;97058.94;4199556;28;5690;-78
2023/09/06 12:56:07;;;;;;;;;;;;;;;26.45;49.93;97055.13;4201177;28;5705;-77
2023/09/06 12:58:12;;;;;;;;;;;;;;;26.46;49.86;97061.38;4195369;28;5790;-84
2023/09/06 13:00:16;;;;;;;;;;;;;;;26.47;50.01;97055.66;4197577;28;5827;-78
2023/09/06 13:02:19;;;;;;;;;;;;;;;26.49;49.91;97055.34;4202395;28;5690;-82
2023/09/06 13:04:22;;;;;;;;;;;;;;;26.48;49.67;97051.03;4201262;28;5690;-74
2023/09/06 13:06:28;;;;;;;;;;;;;;;26.49;49.48;97055.34;4201501;28;7730;-81
2023/09/06 13:08:34;;;;;;;;;;;;;;;26.51;49.53;97048.56;4198151;28;5087;-74
2023/09/06 13:10:39;;;;;;;;;;;;;;;26.52;49.26;97042.06;4194683;28;5765;-68
2023/09/06 13:12:44;;;;;;;;;;;;;;;26.53;49.24;97046.38;4200835;28;5818;-73
2023/09/06 13:14:47;;;;;;;;;;;;;;;26.54;49.32;97047.19;4203593;28;5694;-74
2023/09/06 13:16:50;;;;;;;;;;;;;;;26.53;49.13;97046.38;4201910;28;5693;-74
2023/09/06 13:18:53;;;;;;;;;;;;;;;26.53;49.46;97043.66;4201246;28;5702;-73
2023/09/06 13:20:57;;;;;;;;;;;;;;;26.55;49.30;97038.75;4199925;28;5899;-71
2023/09/06 13:22:59;;;;;;;;;;;;;;;26.55;49.40;97036.03;4199813;28;5719;-74
2023/09/06 13:25:02;;;;;;;;;;;;;;;26.55;49.44;97036.03;4196267;28;5713;-82
2023/09/06 13:27:07;;;;;;;;;;;;;;;26.56;49.30;97034.13;4202123;28;5801;-81
2023/09/06 13:29:10;;;;;;;;;;;;;;;26.55;49.21;97033.34;4190954;28;6376;-75
2023/09/06 13:31:13;;;;;;;;;;;;;;;26.58;49.11;97031.94;4194793;28;5802;-73
2023/09/06 13:33:16;;;;;;;;;;;;;;;26.57;48.71;97025.72;4199629;28;5749;-76
2023/09/06 13:35:19;;;;;;;;;;;;;;;26.59;48.84;97026.22;4195086;28;6379;-71
2023/09/06 13:37:22;;;;;;;;;;;;;;;26.60;48.69;97019.69;4200232;28;5694;-74
2023/09/06 13:39:26;;;;;;;;;;;;;;;26.62;48.63;97014.81;4203780;28;5759;-72
2023/09/06 13:41:28;;;;;;;;;;;;;;;26.63;48.50;97019.16;4191867;28;5712;-72
2023/09/06 13:43:33;;;;;;;;;;;;;;;26.64;48.52;97011.81;4200194;28;5829;-76
2023/09/06 13:45:36;;;;;;;;;;;;;;;26.65;48.58;97010.72;4196414;28;5781;-81
2023/09/06 13:47:39;;;;;;;;;;;;;;;26.66;48.51;97010.41;4199907;28;5702;-67
2023/09/06 13:49:42;;;;;;;;;;;;;;;26.66;48.56;97010.41;4202416;28;5792;-74
2023/09/06 13:51:45;;;;;;;;;;;;;;;26.68;48.60;97015.53;4198734;28;6673;-74
2023/09/06 13:53:49;;;;;;;;;;;;;;;26.67;48.58;97009.31;4202141;28;5850;-75
2023/09/06 13:55:52;;;;;;;;;;;;;;;26.69;48.54;97012.53;4192859;28;5872;-66
2023/09/06 13:57:55;;;;;;;;;;;;;;;26.70;48.40;97006.00;4198961;28;5812;-68
2023/09/06 13:59:59;;;;;;;;;;;;;;;26.70;48.44;96997.88;4193418;28;5857;-61
2023/09/06 14:02:03;;;;;;;;;;;;;;;26.72;48.31;97005.72;4197088;28;5801;-62
2023/09/06 14:04:07;;;;;;;;;;;;;;;26.72;48.45;97010.34;4194039;28;5682;-67
2023/09/06 14:06:10;;;;;;;;;;;;;;;26.73;48.29;96998.38;4193625;28;7744;-62
2023/09/06 14:08:13;;;;;;;;;;;;;;;26.74;48.25;96997.31;4196114;28;5706;-64
2023/09/06 14:10:16;;;;;;;;;;;;;;;26.75;48.30;96999.72;4202146;28;5694;-68
2023/09/06 14:12:19;;;;;;;;;;;;;;;26.76;48.20;96995.91;4202673;28;5678;-68
2023/09/06 14:14:23;;;;;;;;;;;;;;;26.78;48.22;96987.50;4197027;28;5697;-68
2023/09/06 14:16:27;;;;;;;;;;;;;;;26.78;48.10;96996.44;4196582;28;5868;-68
2023/09/06 14:18:30;;;;;;;;;;;;;;;26.79;48.06;96986.38;4194818;28;5716;-69
2023/09/06 14:20:34;;;;;;;;;;;;;;;26.78;47.92;96992.91;4193316;28;5699;-69
2023/09/06 14:22:37;;;;;;;;;;;;;;;26.78;48.34;96988.28;4202563;28;5842;-68
2023/09/06 14:24:40;;;;;;;;;;;;;;;26.81;48.01;96989.59;4203028;28;5781;-68
2023/09/06 14:26:44;;;;;;;;;;;;;;;26.81;47.77;96981.47;4202681;28;5686;-70
2023/09/06 14:28:48;;;;;;;;;;;;;;;26.83;48.09;96985.50;4202836;28;5714;-68
2023/09/06 14:30:50;;;;;;;;;;;;;;;26.82;48.21;96973.03;4202772;28;5812;-69
2023/09/06 14:32:54;;;;;;;;;;;;;;;26.82;48.16;96972.22;4202003;28;5844;-70
2023/09/06 14:34:57;;;;;;;;;;;;;;;26.83;48.49;96969.22;4202749;28;5896;-68
2023/09/06 14:37:00;;;;;;;;;;;;;;;26.88;48.21;96969.16;4202677;28;5694;-68
2023/09/06 14:39:04;;;;;;;;;;;;;;;26.92;48.26;96963.94;4202717;28;5784;-69
2023/09/06 14:41:11;;;;;;;;;;;;;;;26.91;48.39;96974.00;4202606;28;6339;-68
2023/09/06 14:43:14;;;;;;;;;;;;;;;26.88;48.25;96966.47;4202572;28;6395;-68
2023/09/06 14:45:17;;;;;;;;;;;;;;;26.91;48.18;96973.19;4202604;28;5749;-69
2023/09/06 14:47:20;;;;;;;;;;;;;;;26.90;48.31;96969.69;4202381;28;5800;-68
2023/09/06 14:49:25;;;;;;;;;;;;;;;26.88;48.38;96976.50;4201900;28;5694;-69
2023/09/06 14:51:28;;;;;;;;;;;;;;;26.88;48.62;96962.94;4201458;28;5694;-68
2023/09/06 14:53:32;;;;;;;;;;;;;;;26.88;48.36;96971.88;4202310;28;5789;-68
2023/09/06 14:55:36;;;;;;;;;;;;;;;26.88;48.57;96968.38;4200352;28;5802;-68
2023/09/06 14:57:39;;;;;;;;;;;;;;;26.87;48.41;96961.31;4198940;28;5824;-68
2023/09/06 14:59:42;;;;;;;;;;;;;;;26.87;48.49;96964.84;4200923;28;5773;-68
2023/09/06 15:01:45;;;;;;;;;;;;;;;26.88;48.33;96963.75;4195791;28;6058;-68
2023/09/06 15:03:48;;;;;;;;;;;;;;;26.87;48.50;96964.84;4190410;28;5989;-68
2023/09/06 15:05:53;;;;;;;;;;;;;;;26.89;48.00;96956.41;4197352;28;5772;-68
2023/09/06 15:07:57;;;;;;;;;;;;;;;26.89;48.46;96959.13;4187407;28;6401;-69
2023/09/06 15:09:59;;;;;;;;;;;;;;;26.89;48.42;96951.78;4196801;28;5678;-69
2023/09/06 15:12:03;;;;;;;;;;;;;;;26.90;48.46;96955.31;4195692;28;5901;-68
2023/09/06 15:14:06;;;;;;;;;;;;;;;26.89;48.51;96950.97;4197735;28;5706;-69
2023/09/06 15:16:09;;;;;;;;;;;;;;;26.91;48.56;96948.78;4199750;28;5689;-69
2023/09/06 15:18:11;;;;;;;;;;;;;;;26.92;48.51;96951.19;4196916;28;5727;-68
2023/09/06 15:20:14;;;;;;;;;;;;;;;26.92;48.53;96955.81;4198879;28;5778;-73
2023/09/06 15:22:18;;;;;;;;;;;;;;;26.94;48.60;96953.59;4200224;28;5842;-67
2023/09/06 15:24:40;;;;;;;;;;;;;;;26.93;48.77;96957.44;4198309;28;5858;-67
2023/09/06 15:26:43;;;;;;;;;;;;;;;26.92;48.58;96956.63;4194233;28;5828;-74
2023/09/06 15:28:45;;;;;;;;;;;;;;;26.91;48.59;96952.28;4193272;28;5906;-71
2023/09/06 15:30:49;;;;;;;;;;;;;;;26.91;48.53;96949.59;4193266;28;5822;-76
2023/09/06 15:32:52;;;;;;;;;;;;;;;26.92;48.76;96953.91;4191459;28;5690;-69
2023/09/06 15:34:55;;;;;;;;;;;;;;;26.93;48.91;96946.56;4190854;28;5898;-75
2023/09/06 15:36:58;;;;;;;;;;;;;;;26.93;48.89;96949.28;4193508;28;5690;-70
2023/09/06 15:39:02;;;;;;;;;;;;;;;26.92;48.98;96947.69;4184394;28;5837;-76
2023/09/06 15:41:11;;;;;;;;;;;;;;;26.92;48.88;96945.78;4194804;28;5797;-76
2023/09/06 15:43:14;;;;;;;;;;;;;;;26.93;49.04;96947.38;4197837;28;5877;-77
2023/09/06 15:45:16;;;;;;;;;;;;;;;26.91;48.95;96944.16;4196920;28;7863;-75
2023/09/06 15:47:19;;;;;;;;;;;;;;;26.93;49.15;96944.66;4190946;28;5703;-73
2023/09/06 15:49:22;;;;;;;;;;;;;;;26.95;49.25;96949.78;4189653;28;5689;-71
2023/09/06 15:51:24;;;;;;;;;;;;;;;26.95;49.13;96944.38;4187167;28;5850;-71
2023/09/06 15:53:26;;;;;;;;;;;;;;;26.95;49.21;96947.88;4192368;28;5858;-73
2023/09/06 15:55:32;;;;;;;;;;;;;;;26.96;49.24;96948.72;4192932;28;5681;-72
2023/09/06 15:57:34;;;;;;;;;;;;;;;26.97;49.24;96950.34;4195616;28;5834;-89
2023/09/06 15:59:37;;;;;;;;;;;;;;;26.97;49.16;96953.03;4198033;28;5686;-76
2023/09/06 16:01:40;;;;;;;;;;;;;;;26.98;49.35;96951.94;4194276;28;5704;-63
2023/09/06 16:03:43;;;;;;;;;;;;;;;26.99;49.50;96948.94;4193833;28;5850;-64
2023/09/06 16:05:46;;;;;;;;;;;;;;;26.99;49.56;96954.34;4194053;28;5826;-78
2023/09/06 16:07:49;;;;;;;;;;;;;;;26.99;49.58;96951.63;4197601;28;7869;-78
2023/09/06 16:09:50;;;;;;;;;;;;;;;26.99;49.66;96958.97;4193504;28;5694;-79
2023/09/06 16:11:56;;;;;;;;;;;;;;;26.99;49.63;96950.84;4202213;28;6505;-78
2023/09/06 16:13:59;;;;;;;;;;;;;;;26.99;49.59;96951.63;4196134;28;5728;-71
2023/09/06 16:16:02;;;;;;;;;;;;;;;26.99;49.64;96945.41;4193531;28;5913;-76
2023/09/06 16:18:05;;;;;;;;;;;;;;;27.00;49.56;96947.03;4188209;28;6851;-75
2023/09/06 16:20:11;;;;;;;;;;;;;;;26.99;49.71;96940.78;4191550;28;5870;-75
2023/09/06 16:22:15;;;;;;;;;;;;;;;26.98;49.71;96946.50;4190965;28;5849;-76
2023/09/06 16:24:18;;;;;;;;;;;;;;;26.97;49.92;96953.03;4193225;28;5773;-75